Olovjannaja, Russia
Current Conditions -  °F | °C
As of 6:30 PM on Thursday 23 Oct 2014 (Local Time) from UIAA Reporting Station
Broken Clouds Broken Clouds  
Wind Chill: -1°   Ceiling: 20000
Heat Index:   Visibility: 6mi
Dew Point: -8°   Wind: 7mph
Humidity: 48%   Direction: 260°W
Pressure: 29.8"   Gusts: NA
Location:  50.95°N, 115.57°E
Report Text: UIAA 230930Z 26003MPS 9999 SCT050 BKN200 02/M08 Q1009 NOSIG RMKQFE699 29CLRD70
Loading
Personal Weather Stations






























Interactive Weather Map
Tropical Storm Tracking
New forecast layout! Learn more

10-Day Weather Forecast

Advertisements
Track Severe Weather on mobile